Time;durP1;ratioP1;P1;durP2;ratioP2;P2;SDS_P1;SDS_P2;PMS_P1;PMS_P2;Temp;Humidity;BMP_temperature;BMP_pressure;BME280_temperature;BME280_humidity;BME280_pressure;Samples;Min_cycle;Max_cycle;Signal;HPM_P1;HPM_P2
2021/11/29 07:23:39;;;;;;;23.12;10.53;;;;;;;11.16;100.00;98132.72;1581374;90;21143;-38
2021/11/29 07:26:07;;;;;;;18.85;8.88;;;;;;;11.17;100.00;98120.03;1574752;89;21109;-37
2021/11/29 07:28:41;;;;;;;21.93;9.23;;;;;;;11.15;100.00;98112.24;1573536;88;21666;-37
2021/11/29 07:31:20;;;;;;;21.68;8.95;;;;;;;11.15;100.00;98118.78;1574773;88;21099;-46
2021/11/29 07:33:48;;;;;;;19.48;8.93;;;;;;;11.15;100.00;98114.86;1568286;88;21677;-46
2021/11/29 07:36:15;;;;;;;25.40;9.30;;;;;;;11.18;100.00;98111.27;1582834;88;21091;-46
2021/11/29 07:38:41;;;;;;;16.10;8.90;;;;;;;11.19;100.00;98099.45;1578402;89;21024;-48
2021/11/29 07:41:08;;;;;;;24.65;9.78;;;;;;;11.21;100.00;98084.14;1576456;89;21084;-39
2021/11/29 07:43:36;;;;;;;26.62;9.30;;;;;;;11.21;100.00;98078.45;1579176;89;21084;-48
2021/11/29 07:46:02;;;;;;;17.50;9.38;;;;;;;11.24;100.00;98077.47;1574208;89;21063;-47
2021/11/29 07:48:31;;;;;;;20.70;9.05;;;;;;;11.26;100.00;98067.36;1612527;87;21660;-47
2021/11/29 07:50:58;;;;;;;25.25;9.18;;;;;;;11.28;100.00;98070.75;1609904;87;21068;-40
2021/11/29 07:53:25;;;;;;;18.35;8.15;;;;;;;11.30;100.00;98060.22;1615546;87;21462;-37
2021/11/29 07:55:53;;;;;;;21.62;8.43;;;;;;;11.34;100.00;98056.58;1619027;86;21050;-37
2021/11/29 07:58:21;;;;;;;19.55;8.28;;;;;;;11.37;100.00;98049.94;1614084;87;21099;-38
2021/11/29 08:00:52;;;;;;;18.75;8.35;;;;;;;11.41;100.00;98032.71;1615879;87;21084;-40
2021/11/29 08:03:21;;;;;;;24.00;8.35;;;;;;;11.43;100.00;98038.77;1571431;89;21611;-46
2021/11/29 08:05:48;;;;;;;34.40;7.78;;;;;;;11.47;100.00;98043.41;1578064;88;21121;-45
2021/11/29 08:08:20;;;;;;;16.75;7.42;;;;;;;11.50;100.00;98030.20;1581844;88;21040;-48
2021/11/29 08:10:50;;;;;;;25.48;8.30;;;;;;;11.52;100.00;98012.66;1562027;90;21118;-37
2021/11/29 08:13:17;;;;;;;18.77;8.05;;;;;;;11.56;100.00;98010.32;1560684;89;21096;-39
2021/11/29 08:15:45;;;;;;;20.15;8.18;;;;;;;11.60;100.00;98006.67;1563023;88;21057;-47
2021/11/29 08:18:18;;;;;;;20.75;7.87;;;;;;;11.63;100.00;98002.60;1560409;90;21037;-47
2021/11/29 08:20:46;;;;;;;20.12;8.25;;;;;;;11.65;100.00;98011.27;1566957;90;21596;-47
2021/11/29 08:23:14;;;;;;;21.48;8.80;;;;;;;11.66;100.00;97993.33;1562519;90;21068;-38
2021/11/29 08:25:41;;;;;;;20.17;8.03;;;;;;;11.65;100.00;97998.17;1561958;89;22037;-47
2021/11/29 08:28:09;;;;;;;23.60;8.75;;;;;;;11.64;100.00;97981.19;1562027;89;21846;-46
2021/11/29 08:30:39;;;;;;;28.55;8.93;;;;;;;11.64;100.00;97984.66;1568347;89;21137;-38
2021/11/29 08:33:07;;;;;;;28.87;8.25;;;;;;;11.63;100.00;97965.09;1566958;89;21035;-47
2021/11/29 08:35:33;;;;;;;27.42;8.30;;;;;;;11.62;100.00;97961.62;1566137;88;21072;-38
2021/11/29 08:38:00;;;;;;;27.30;8.45;;;;;;;11.62;100.00;97959.00;1563663;89;21034;-47
2021/11/29 08:40:29;;;;;;;27.17;9.13;;;;;;;11.62;100.00;97946.37;1563730;89;21077;-46
2021/11/29 08:42:58;;;;;;;30.17;9.33;;;;;;;11.63;100.00;97942.37;1559987;89;21032;-46
2021/11/29 08:45:25;;;;;;;23.80;8.20;;;;;;;11.63;100.00;97929.73;1537856;91;21092;-46
2021/11/29 08:47:56;;;;;;;19.48;7.40;;;;;;;11.63;100.00;97925.80;1540647;91;21629;-38
2021/11/29 08:50:24;;;;;;;22.42;8.15;;;;;;;11.64;100.00;97915.72;1538560;90;21084;-38
2021/11/29 08:52:53;;;;;;;27.62;8.05;;;;;;;11.65;100.00;97906.51;1565341;89;21454;-38
2021/11/29 08:55:20;;;;;;;28.65;9.10;;;;;;;11.67;100.00;97898.13;1547801;91;21117;-38
2021/11/29 08:57:46;;;;;;;26.02;9.20;;;;;;;11.68;100.00;97886.72;1570134;89;21068;-38
2021/11/29 09:00:17;;;;;;;21.42;8.20;;;;;;;11.68;100.00;97878.86;1569486;89;21138;-38
2021/11/29 09:02:45;;;;;;;24.27;8.85;;;;;;;11.67;100.00;97865.38;1569038;89;21717;-37
2021/11/29 09:05:12;;;;;;;22.93;8.75;;;;;;;11.66;100.00;97864.99;1570008;88;21567;-37
2021/11/29 09:07:40;;;;;;;21.30;8.68;;;;;;;11.64;100.00;97863.34;1568663;89;21046;-38
2021/11/29 09:10:19;;;;;;;23.40;7.97;;;;;;;11.62;100.00;97845.08;1502839;92;21596;-39
2021/11/29 09:12:49;;;;;;;23.57;8.28;;;;;;;11.61;100.00;97853.01;1535267;91;21037;-48
2021/11/29 09:15:16;;;;;;;24.10;7.78;;;;;;;11.59;100.00;97824.70;1522235;93;21146;-37
2021/11/29 09:17:47;;;;;;;20.48;8.65;;;;;;;11.59;100.00;97829.95;1537045;92;21084;-39
2021/11/29 09:20:16;;;;;;;20.32;8.10;;;;;;;11.59;100.00;97829.48;1547440;90;21175;-47
2021/11/29 09:22:43;;;;;;;23.73;8.68;;;;;;;11.59;100.00;97816.39;1565473;89;21553;-43
2021/11/29 09:25:12;;;;;;;21.23;9.73;;;;;;;11.60;100.00;97821.20;1569379;89;21093;-47
2021/11/29 09:27:39;;;;;;;24.82;9.25;;;;;;;11.62;100.00;97790.55;1571152;89;21028;-39
2021/11/29 09:30:08;;;;;;;22.60;8.70;;;;;;;11.63;100.00;97793.55;1567372;89;21682;-38
2021/11/29 09:32:37;;;;;;;30.43;8.95;;;;;;;11.65;100.00;97770.32;1574985;89;21077;-47
2021/11/29 09:35:10;;;;;;;22.45;9.03;;;;;;;11.67;100.00;97751.45;1571557;89;21062;-47
2021/11/29 09:37:37;;;;;;;24.75;8.20;;;;;;;11.68;100.00;97753.14;1571106;89;21109;-38
2021/11/29 09:40:06;;;;;;;19.35;9.25;;;;;;;11.70;100.00;97743.91;1566319;89;21049;-47
2021/11/29 09:42:36;;;;;;;23.57;7.72;;;;;;;11.72;100.00;97741.62;1570450;89;21089;-38
2021/11/29 09:45:08;;;;;;;23.52;8.68;;;;;;;11.75;100.00;97731.45;1578181;89;21044;-47
2021/11/29 09:47:35;;;;;;;18.30;7.50;;;;;;;11.79;100.00;97725.16;1624559;87;21056;-38
2021/11/29 09:50:05;;;;;;;23.25;7.95;;;;;;;11.81;100.00;97722.03;1619603;87;21262;-47
2021/11/29 09:52:33;;;;;;;20.92;8.05;;;;;;;11.84;100.00;97719.75;1583740;89;21035;-47
2021/11/29 09:55:00;;;;;;;22.35;8.50;;;;;;;11.85;100.00;97719.67;1581185;89;21047;-47
2021/11/29 09:57:27;;;;;;;33.28;9.88;;;;;;;11.84;100.00;97704.88;1588430;89;21214;-47
2021/11/29 09:59:55;;;;;;;29.15;8.08;;;;;;;11.82;100.00;97707.16;1621002;87;21084;-37
2021/11/29 10:02:22;;;;;;;27.98;8.45;;;;;;;11.80;100.00;97715.07;1621529;87;21672;-46
2021/11/29 10:04:49;;;;;;;19.30;7.85;;;;;;;11.78;100.00;97695.97;1570145;89;21682;-53
2021/11/29 10:07:34;;;;;;;23.15;8.10;;;;;;;11.76;100.00;97678.60;1567605;89;21571;-37
2021/11/29 10:10:36;;;;;;;22.55;8.15;;;;;;;11.71;100.00;97683.61;1567158;89;21627;-47
2021/11/29 10:12:54;;;;;;;17.75;7.80;;;;;;;11.68;100.00;97667.18;1562970;89;21090;-46
2021/11/29 10:15:32;;;;;;;21.97;7.87;;;;;;;11.67;100.00;97652.39;1568069;89;21139;-45
2021/11/29 10:18:10;;;;;;;16.85;7.25;;;;;;;11.64;100.00;97644.66;1565758;89;21822;-46
2021/11/29 10:21:01;;;;;;;20.95;8.23;;;;;;;11.59;100.00;97634.39;1565322;89;21108;-47
2021/11/29 10:24:28;;;;;;;20.20;8.85;;;;;;;11.56;100.00;97632.39;1562797;89;21053;-46
2021/11/29 10:31:54;;;;;;;14.45;6.55;;;;;;;11.44;100.00;97603.70;1619051;87;21116;-47
2021/11/29 10:34:39;;;;;;;15.00;7.30;;;;;;;11.40;100.00;97606.05;1578518;89;21092;-47
2021/11/29 10:37:14;;;;;;;12.75;6.70;;;;;;;11.37;100.00;97599.20;1619863;87;22298;-48
2021/11/29 10:39:43;;;;;;;17.70;7.58;;;;;;;11.35;100.00;97604.95;1579828;88;21038;-46
2021/11/29 10:42:12;;;;;;;20.30;5.95;;;;;;;11.33;100.00;97563.61;1621818;87;21056;-47
2021/11/29 10:44:45;;;;;;;14.60;6.28;;;;;;;11.34;100.00;97563.15;1618653;87;21051;-37
2021/11/29 10:47:14;;;;;;;13.55;6.12;;;;;;;11.33;100.00;97550.52;1580827;88;21474;-46
2021/11/29 10:49:44;;;;;;;23.45;6.47;;;;;;;11.34;100.00;97571.84;1578333;89;21021;-46
2021/11/29 10:52:17;;;;;;;13.65;6.28;;;;;;;11.35;100.00;97553.06;1581766;89;21081;-38
2021/11/29 10:54:44;;;;;;;11.85;5.65;;;;;;;11.37;100.00;97551.24;1619263;87;21692;-37
2021/11/29 10:57:12;;;;;;;14.43;6.95;;;;;;;11.42;100.00;97544.88;1620872;87;21105;-38
2021/11/29 10:59:41;;;;;;;16.67;8.05;;;;;;;11.46;100.00;97549.02;1581248;88;21895;-37
2021/11/29 11:02:18;;;;;;;13.48;7.67;;;;;;;11.51;100.00;97544.04;1616986;87;21182;-42
2021/11/29 11:04:48;;;;;;;16.00;8.18;;;;;;;11.53;100.00;97544.34;1556355;90;21708;-39
2021/11/29 11:07:22;;;;;;;18.07;7.00;;;;;;;11.55;100.00;97528.58;1563541;90;21707;-46
2021/11/29 11:09:51;;;;;;;13.93;6.25;;;;;;;11.56;100.00;97517.18;1559276;90;21150;-45
2021/11/29 11:12:18;;;;;;;14.80;6.12;;;;;;;11.55;100.00;97515.03;1558969;90;21040;-46
2021/11/29 11:14:53;;;;;;;9.80;5.35;;;;;;;11.55;100.00;97495.39;1545082;91;21913;-46
2021/11/29 11:17:25;;;;;;;15.30;6.00;;;;;;;11.55;100.00;97482.77;1548991;91;21562;-46
2021/11/29 11:39:04;;;;;;;16.15;6.58;;;;;;;11.54;100.00;97450.92;1559416;89;21008;-45
2021/11/29 11:41:40;;;;;;;15.75;6.87;;;;;;;11.52;100.00;97438.39;1585998;87;21111;-39
2021/11/29 11:44:17;;;;;;;;;;;;;;;11.50;100.00;97429.30;1601275;87;20981;-38
2021/11/29 11:46:45;;;;;;;30.55;8.30;;;;;;;11.48;100.00;97427.23;1608175;87;20140;-39
2021/11/29 11:49:11;;;;;;;26.25;8.48;;;;;;;11.44;100.00;97408.20;1616608;87;21022;-38
2021/11/29 11:51:50;;;;;;;21.00;8.05;;;;;;;11.42;100.00;97415.72;1592374;87;21700;-46
2021/11/29 11:54:17;;;;;;;24.07;8.65;;;;;;;11.38;100.00;97407.19;1615676;87;21043;-47
2021/11/29 11:56:44;;;;;;;25.40;10.50;;;;;;;11.38;100.00;97384.94;1619582;87;21546;-46
2021/11/29 11:59:17;;;;;;;22.05;9.65;;;;;;;11.39;100.00;97375.31;1617574;87;21085;-38
2021/11/29 12:01:48;;;;;;;22.98;8.78;;;;;;;11.39;100.00;97377.47;1613055;87;21074;-38
2021/11/29 12:04:17;;;;;;;25.05;9.58;;;;;;;11.40;100.00;97365.23;1615587;87;21028;-38
2021/11/29 12:06:50;;;;;;;18.57;8.68;;;;;;;11.39;100.00;97353.91;1611898;87;21535;-46
2021/11/29 12:09:27;;;;;;;18.95;9.55;;;;;;;11.40;100.00;97345.12;1613143;87;21016;-37
2021/11/29 12:12:04;;;;;;;28.32;10.65;;;;;;;11.41;100.00;97338.97;1587732;87;21507;-38
2021/11/29 12:14:32;;;;;;;21.07;11.30;;;;;;;11.43;100.00;97329.75;1610943;87;21638;-46
2021/11/29 12:17:18;;;;;;;32.50;13.20;;;;;;;11.44;100.00;97326.20;1609627;87;21077;-46
2021/11/29 12:19:47;;;;;;;21.35;9.95;;;;;;;11.47;100.00;97320.80;1589155;87;21595;-39
2021/11/29 12:22:24;;;;;;;21.57;10.38;;;;;;;11.49;100.00;97299.33;1615783;87;21571;-47
2021/11/29 12:25:01;;;;;;;21.65;10.65;;;;;;;11.51;100.00;97293.55;1612982;87;21048;-38
2021/11/29 12:27:55;;;;;;;25.00;10.95;;;;;;;11.53;100.00;97285.60;1592320;88;21544;-40
2021/11/29 12:30:44;;;;;;;18.77;8.80;;;;;;;11.55;100.00;97272.83;1590913;88;21497;-37
2021/11/29 12:33:14;;;;;;;20.17;9.88;;;;;;;11.56;100.00;97266.66;1592685;88;21040;-45
2021/11/29 12:35:53;;;;;;;22.42;8.60;;;;;;;11.56;100.00;97257.50;1563227;90;21174;-38
2021/11/29 12:38:21;;;;;;;21.87;8.80;;;;;;;11.56;100.00;97245.72;1612383;87;21034;-37
2021/11/29 12:40:53;;;;;;;27.42;9.30;;;;;;;11.58;100.00;97246.48;1614690;87;21072;-38
2021/11/29 12:43:43;;;;;;;24.65;8.95;;;;;;;11.60;100.00;97245.11;1615828;87;21051;-38
2021/11/29 12:46:24;;;;;;;17.77;7.78;;;;;;;11.62;100.00;97234.08;1564614;90;21725;-46
2021/11/29 12:48:53;;;;;;;23.42;8.38;;;;;;;11.62;100.00;97229.69;1523295;93;21113;-38
2021/11/29 12:51:44;;;;;;;26.85;10.50;;;;;;;11.61;100.00;97220.14;1564949;90;21169;-39
2021/11/29 12:54:37;;;;;;;27.05;10.88;;;;;;;11.60;100.00;97211.91;1568289;90;21596;-46
2021/11/29 12:57:22;;;;;;;17.87;9.50;;;;;;;11.60;100.00;97210.61;1566951;90;21130;-39
2021/11/29 12:59:56;;;;;;;22.40;11.45;;;;;;;11.59;100.00;97211.50;1566592;90;21047;-40
2021/11/29 13:02:52;;;;;;;26.77;11.93;;;;;;;11.57;100.00;97195.04;1560816;90;21937;-46
2021/11/29 13:05:30;;;;;;;25.75;11.08;;;;;;;11.58;100.00;97181.48;1573038;90;21113;-38
2021/11/29 13:08:29;;;;;;;29.35;12.40;;;;;;;11.60;100.00;97164.78;1564030;90;21559;-45
2021/11/29 13:11:32;;;;;;;32.33;12.30;;;;;;;11.67;100.00;97153.51;1563026;90;21204;-46
2021/11/29 13:14:21;;;;;;;27.60;13.20;;;;;;;11.73;100.00;97147.47;1538551;91;21346;-46
2021/11/29 13:16:58;;;;;;;32.93;10.28;;;;;;;11.81;100.00;97144.89;1544823;91;21104;-46
2021/11/29 13:19:43;;;;;;;31.00;13.27;;;;;;;11.84;100.00;97139.06;1551053;91;21127;-46
2021/11/29 13:22:16;;;;;;;23.02;10.68;;;;;;;11.86;100.00;97135.05;1562487;87;21360;-46
2021/11/29 13:24:50;;;;;;;33.35;11.90;;;;;;;11.88;100.00;97133.17;1612758;86;21057;-38
2021/11/29 13:27:24;;;;;;;34.78;12.10;;;;;;;11.88;100.00;97125.31;1609436;87;21076;-45
2021/11/29 13:30:03;;;;;;;25.70;11.15;;;;;;;11.87;100.00;97122.32;1613728;87;21016;-37
2021/11/29 13:32:33;;;;;;;32.38;13.80;;;;;;;11.85;100.00;97118.95;1611186;87;21607;-41
2021/11/29 13:35:07;;;;;;;42.27;14.78;;;;;;;11.82;100.00;97113.88;1614676;87;21748;-46
2021/11/29 13:37:38;;;;;;;29.27;14.75;;;;;;;11.77;100.00;97102.33;1609931;87;21451;-39
2021/11/29 13:40:13;;;;;;;30.00;13.95;;;;;;;11.73;100.00;97098.18;1606515;86;21111;-46
2021/11/29 13:42:42;;;;;;;34.98;13.45;;;;;;;11.68;100.00;97089.73;1608170;87;22069;-47
2021/11/29 13:45:25;;;;;;;34.13;14.68;;;;;;;11.61;100.00;97094.46;1610583;87;21741;-46
2021/11/29 13:48:05;;;;;;;35.07;12.13;;;;;;;11.57;100.00;97090.31;1605298;88;21047;-37
2021/11/29 13:50:35;;;;;;;23.42;12.33;;;;;;;11.55;100.00;97080.87;1612896;87;21111;-36
2021/11/29 13:53:06;;;;;;;26.52;14.18;;;;;;;11.52;100.00;97083.17;1613790;87;21019;-47
2021/11/29 13:55:41;;;;;;;26.02;15.70;;;;;;;11.50;100.00;97078.96;1607840;87;21136;-45
2021/11/29 13:58:20;;;;;;;34.60;17.55;;;;;;;11.48;100.00;97086.91;1631760;87;21539;-38
2021/11/29 14:00:53;;;;;;;25.72;17.37;;;;;;;11.47;100.00;97087.80;1617728;87;21107;-39
2021/11/29 14:03:28;;;;;;;31.60;15.18;;;;;;;11.46;100.00;97099.21;1615283;88;21020;-47
2021/11/29 14:05:58;;;;;;;31.50;12.47;;;;;;;11.44;100.00;97107.63;1624039;86;21039;-48
2021/11/29 14:08:31;;;;;;;27.82;12.45;;;;;;;11.42;100.00;97109.45;1583996;89;21635;-46
2021/11/29 14:11:01;;;;;;;32.78;10.23;;;;;;;11.39;100.00;97117.02;1577036;89;21081;-46
2021/11/29 14:13:38;;;;;;;24.30;9.80;;;;;;;11.37;100.00;97117.58;1605192;89;21032;-46
2021/11/29 14:16:18;;;;;;;27.45;10.30;;;;;;;11.35;100.00;97125.95;1583943;89;21041;-46
2021/11/29 14:18:48;;;;;;;20.25;8.60;;;;;;;11.33;100.00;97133.52;1578118;89;21086;-46
2021/11/29 14:21:26;;;;;;;27.90;10.32;;;;;;;11.29;100.00;97144.60;1580258;89;21629;-47
2021/11/29 14:24:01;;;;;;;26.52;9.70;;;;;;;11.26;100.00;97155.72;1580608;90;21024;-46
2021/11/29 14:26:45;;;;;;;21.12;10.40;;;;;;;11.20;100.00;97166.03;1579515;89;21123;-46
2021/11/29 14:29:31;;;;;;;18.85;8.60;;;;;;;11.14;100.00;97168.51;1573724;91;21065;-47
2021/11/29 14:32:09;;;;;;;16.70;8.10;;;;;;;11.05;100.00;97180.73;1608176;88;21100;-46
2021/11/29 14:34:45;;;;;;;10.90;5.78;;;;;;;11.01;100.00;97188.81;1595189;89;21077;-46
2021/11/29 14:37:17;;;;;;;15.78;6.72;;;;;;;10.98;100.00;97182.45;1573474;90;21720;-47
2021/11/29 14:39:55;;;;;;;14.65;6.65;;;;;;;10.95;100.00;97162.97;1603386;89;21017;-47
2021/11/29 14:42:27;;;;;;;10.80;5.90;;;;;;;10.92;100.00;97095.98;1580302;89;21061;-46
2021/11/29 14:45:04;;;;;;;8.35;5.08;;;;;;;10.89;100.00;97006.73;1609371;88;21083;-46
2021/11/29 14:47:44;;;;;;;14.98;7.28;;;;;;;10.86;100.00;97008.69;1576770;89;21090;-47
